CheckWX is a tool to help pilots better visualize weather data.  It is not intended as a substitute for an official pre-flight weather briefing.

13:02:27 UTC

KALO TAF
Waterloo Regional Airport
Waterloo, Iowa, USA
KALO 261137Z 2612/2712 12003KT P6SM BKN045 FM261500 18007KT P6SM FEW080

Mar-26@
12:00 UTC

Mar-26 @ 12:00 UTC

Mar-26@
15:00 UTC

Mar-26 @ 15:00 UTC

KALO 261137Z 2612/2712 12003KT P6SM BKN045
Wind
  • 120° at 3 KTS
Cloud Levels
  • Broken at 4,500' AGL

Mar-26@
15:00 UTC

Mar-26 @ 15:00 UTC

Mar-27@
12:00 UTC

Mar-27 @ 12:00 UTC

FM261500 18007KT P6SM FEW080

From

From Standard forecast or significant change

Wind
  • 180° at 7 KTS
Cloud Levels
  • Few at 8,000' AGL